Time;durP1;ratioP1;P1;durP2;ratioP2;P2;SDS_P1;SDS_P2;PMS_P1;PMS_P2;Temp;Humidity;BMP_temperature;BMP_pressure;BME280_temperature;BME280_humidity;BME280_pressure;Samples;Min_cycle;Max_cycle;Signal;HPM_P1;HPM_P2
2023/04/29 00:00:01;;;;;;;43.75;31.65;;;11.50;99.90;;;;;;6243092;22;20000;-76
2023/04/29 00:02:27;;;;;;;40.90;30.52;;;11.50;99.90;;;;;;6242516;22;20004;-76
2023/04/29 00:04:53;;;;;;;42.30;30.90;;;11.50;99.90;;;;;;6242529;22;20000;-76
2023/04/29 00:07:19;;;;;;;44.38;32.60;;;11.50;99.90;;;;;;6241939;22;20000;-76
2023/04/29 00:09:44;;;;;;;48.78;32.88;;;11.50;99.90;;;;;;6242782;22;20015;-75
2023/04/29 00:12:10;;;;;;;46.10;33.58;;;11.40;99.90;;;;;;6241876;22;20012;-76
2023/04/29 00:14:36;;;;;;;45.20;32.28;;;11.40;99.90;;;;;;6242224;22;19996;-76
2023/04/29 00:17:02;;;;;;;48.28;31.77;;;11.40;99.90;;;;;;6241291;22;20007;-76
2023/04/29 00:19:28;;;;;;;47.25;33.05;;;11.40;99.90;;;;;;6239765;23;20012;-76
2023/04/29 00:21:53;;;;;;;48.88;34.30;;;11.40;99.90;;;;;;6241423;22;20007;-76
2023/04/29 00:24:19;;;;;;;40.83;30.40;;;11.30;99.90;;;;;;6242160;23;20388;-76
2023/04/29 00:26:45;;;;;;;46.28;31.88;;;11.30;99.90;;;;;;6241344;23;20019;-76
2023/04/29 00:29:11;;;;;;;44.88;31.65;;;11.30;99.90;;;;;;6242299;22;20041;-76
2023/04/29 00:31:37;;;;;;;49.78;34.78;;;11.30;99.90;;;;;;6242722;22;20023;-76
2023/04/29 00:34:02;;;;;;;49.85;32.47;;;11.30;99.90;;;;;;6240204;23;20023;-76
2023/04/29 00:36:28;;;;;;;47.05;33.30;;;11.30;99.90;;;;;;6240568;23;20087;-76
2023/04/29 00:38:54;;;;;;;42.13;30.13;;;11.30;99.90;;;;;;6242758;23;20000;-76
2023/04/29 00:41:20;;;;;;;47.35;33.35;;;11.20;99.90;;;;;;6242225;22;20008;-76
2023/04/29 00:43:45;;;;;;;49.22;33.47;;;11.20;99.90;;;;;;6243088;23;20075;-76
2023/04/29 00:46:11;;;;;;;48.38;33.08;;;11.20;99.90;;;;;;6242157;23;20042;-76
2023/04/29 00:48:37;;;;;;;45.60;32.15;;;11.20;99.90;;;;;;6240770;23;20000;-76
2023/04/29 00:51:04;;;;;;;39.40;29.75;;;11.20;99.90;;;;;;6242614;22;20452;-76
2023/04/29 00:53:30;;;;;;;48.95;31.55;;;11.20;99.90;;;;;;6242318;22;20441;-75
2023/04/29 00:55:56;;;;;;;45.15;31.05;;;11.20;99.90;;;;;;6242764;22;20027;-74
2023/04/29 00:58:22;;;;;;;45.30;31.80;;;11.30;99.90;;;;;;6242288;23;20425;-75
2023/04/29 01:00:48;;;;;;;48.15;33.35;;;11.20;99.90;;;;;;6242848;22;20000;-75
2023/04/29 01:03:14;;;;;;;47.70;30.67;;;11.30;99.90;;;;;;6241407;22;20058;-75
2023/04/29 01:05:40;;;;;;;43.78;29.63;;;11.30;99.90;;;;;;6242699;22;20487;-75
2023/04/29 01:08:29;;;;;;;40.63;27.88;;;11.30;99.90;;;;;;6240981;23;20000;-75
2023/04/29 01:11:11;;;;;;;39.30;28.40;;;11.30;99.90;;;;;;6242705;22;19997;-75
2023/04/29 01:13:48;;;;;;;37.63;26.85;;;11.30;99.90;;;;;;6242659;22;20448;-75
2023/04/29 01:16:24;;;;;;;37.75;26.42;;;11.30;99.90;;;;;;6242105;22;20426;-75
2023/04/29 01:18:56;;;;;;;40.75;28.83;;;11.30;99.90;;;;;;6245404;22;20006;-75
2023/04/29 01:21:24;;;;;;;38.42;27.50;;;11.30;99.90;;;;;;6245144;22;20004;-74
2023/04/29 01:23:55;;;;;;;37.75;27.55;;;11.30;99.90;;;;;;6246032;22;20079;-75
2023/04/29 01:26:22;;;;;;;38.00;26.75;;;11.20;99.90;;;;;;6245316;22;20008;-75
2023/04/29 01:29:15;;;;;;;36.50;25.70;;;11.30;99.90;;;;;;6244490;23;20463;-76
2023/04/29 01:31:49;;;;;;;36.58;26.40;;;11.30;99.90;;;;;;6245229;23;20054;-75
2023/04/29 01:34:26;;;;;;;37.67;27.30;;;11.30;99.90;;;;;;6245089;22;20016;-75
2023/04/29 01:37:14;;;;;;;38.15;27.67;;;11.30;99.90;;;;;;6244233;23;20110;-75
2023/04/29 01:39:59;;;;;;;37.42;26.95;;;11.30;99.90;;;;;;6245760;22;20357;-75
2023/04/29 01:42:38;;;;;;;36.00;24.98;;;11.30;99.90;;;;;;6245483;22;20007;-75
2023/04/29 01:45:07;;;;;;;34.72;23.45;;;11.30;99.90;;;;;;6245933;22;20315;-75
2023/04/29 01:47:34;;;;;;;43.05;25.00;;;11.30;99.90;;;;;;6245238;22;20007;-75
2023/04/29 01:50:01;;;;;;;35.38;26.98;;;11.20;99.90;;;;;;6245812;22;20438;-75
2023/04/29 01:52:27;;;;;;;40.05;26.40;;;11.20;99.90;;;;;;6243450;23;20101;-75
2023/04/29 01:54:53;;;;;;;40.95;27.95;;;11.20;99.90;;;;;;6246029;22;20194;-75
2023/04/29 01:57:18;;;;;;;35.47;25.60;;;11.20;99.90;;;;;;6245080;23;20437;-75
2023/04/29 01:59:44;;;;;;;38.33;27.35;;;11.20;99.90;;;;;;6246056;23;20004;-75
2023/04/29 02:02:09;;;;;;;38.33;26.38;;;11.20;99.90;;;;;;6244798;23;20012;-75
2023/04/29 02:04:35;;;;;;;34.85;25.77;;;11.20;99.90;;;;;;6243869;23;20012;-75
2023/04/29 02:07:00;;;;;;;39.25;27.45;;;11.20;99.90;;;;;;6245671;23;20042;-75
2023/04/29 02:09:26;;;;;;;37.70;25.73;;;11.20;99.90;;;;;;6245178;23;20024;-75
2023/04/29 02:11:52;;;;;;;39.35;26.30;;;11.20;99.90;;;;;;6245541;23;20473;-75
2023/04/29 02:14:17;;;;;;;35.05;24.08;;;11.20;99.90;;;;;;6245155;23;20330;-75
2023/04/29 02:16:44;;;;;;;37.45;26.67;;;11.20;99.90;;;;;;6243344;23;20095;-75
2023/04/29 02:19:10;;;;;;;39.08;26.90;;;11.20;99.90;;;;;;6245357;22;20072;-75
2023/04/29 02:21:35;;;;;;;32.50;25.67;;;11.20;99.90;;;;;;6245538;22;20020;-75
2023/04/29 02:24:01;;;;;;;40.78;26.70;;;11.20;99.90;;;;;;6245634;23;19996;-74
2023/04/29 02:26:27;;;;;;;42.15;28.08;;;11.10;99.90;;;;;;6243216;23;20413;-75
2023/04/29 02:28:52;;;;;;;34.00;24.75;;;11.20;99.90;;;;;;6244679;23;20303;-75
2023/04/29 02:31:18;;;;;;;37.50;25.80;;;11.20;99.90;;;;;;6242544;23;20004;-74
2023/04/29 02:33:44;;;;;;;38.25;25.98;;;11.20;99.90;;;;;;6243760;22;20008;-74
2023/04/29 02:36:09;;;;;;;39.22;25.70;;;11.20;99.90;;;;;;6243518;23;20000;-74
2023/04/29 02:38:35;;;;;;;35.28;24.67;;;11.20;99.90;;;;;;6243795;23;20004;-75
2023/04/29 02:41:00;;;;;;;31.35;24.08;;;11.20;99.90;;;;;;6243854;23;20012;-75
2023/04/29 02:43:29;;;;;;;32.28;24.83;;;11.20;99.90;;;;;;6243401;23;20071;-75
2023/04/29 02:45:55;;;;;;;28.08;21.88;;;11.20;99.90;;;;;;6243374;22;20000;-75
2023/04/29 02:48:20;;;;;;;34.42;25.08;;;11.20;99.90;;;;;;6243266;23;20008;-74
2023/04/29 02:50:46;;;;;;;34.10;22.88;;;11.20;99.90;;;;;;6243881;23;20010;-75
2023/04/29 02:53:11;;;;;;;29.13;21.27;;;11.20;99.90;;;;;;6243177;23;20034;-74
2023/04/29 02:55:37;;;;;;;32.53;24.15;;;11.20;99.90;;;;;;6243691;23;20091;-74
2023/04/29 02:58:03;;;;;;;30.90;22.70;;;11.20;99.90;;;;;;6244286;23;20008;-75
2023/04/29 03:00:28;;;;;;;29.42;23.73;;;11.20;99.90;;;;;;6247256;23;20053;-74
2023/04/29 03:02:54;;;;;;;36.42;25.33;;;11.10;99.90;;;;;;6245527;23;20001;-74
2023/04/29 03:05:19;;;;;;;38.22;24.33;;;11.10;99.90;;;;;;6243400;23;20422;-74
2023/04/29 03:07:45;;;;;;;30.98;21.65;;;11.20;99.90;;;;;;6243961;23;20076;-74
2023/04/29 03:10:11;;;;;;;29.67;21.83;;;11.10;99.90;;;;;;6243438;23;20031;-75
2023/04/29 03:12:38;;;;;;;33.60;23.95;;;11.10;99.90;;;;;;6243824;22;20004;-75
2023/04/29 03:15:05;;;;;;;36.05;24.38;;;11.10;99.90;;;;;;6241274;23;20008;-74
2023/04/29 03:17:31;;;;;;;33.83;23.45;;;11.10;99.90;;;;;;6243263;22;20007;-74
2023/04/29 03:19:57;;;;;;;30.08;21.73;;;11.10;99.90;;;;;;6243556;22;20071;-75
2023/04/29 03:22:22;;;;;;;41.08;26.27;;;11.10;99.90;;;;;;6243175;23;20038;-74
2023/04/29 03:24:48;;;;;;;33.25;22.95;;;11.10;99.90;;;;;;6243413;23;20333;-74
2023/04/29 03:27:13;;;;;;;35.75;24.88;;;11.10;99.90;;;;;;6243033;23;20440;-74
2023/04/29 03:29:39;;;;;;;33.33;23.90;;;11.10;99.90;;;;;;6242974;23;20079;-74
2023/04/29 03:32:04;;;;;;;36.65;25.58;;;11.10;99.90;;;;;;6243115;23;20012;-74
2023/04/29 03:34:30;;;;;;;33.33;23.80;;;11.10;99.90;;;;;;6242682;23;20024;-74
2023/04/29 03:36:56;;;;;;;30.30;21.77;;;11.10;99.90;;;;;;6243351;23;20025;-74
2023/04/29 03:39:21;;;;;;;30.52;21.88;;;11.10;99.90;;;;;;6242739;22;20005;-74
2023/04/29 03:41:47;;;;;;;28.30;21.48;;;11.10;99.90;;;;;;6242707;23;20085;-75
2023/04/29 03:44:13;;;;;;;33.03;23.23;;;11.10;99.90;;;;;;6242754;23;20007;-74
2023/04/29 03:46:38;;;;;;;33.58;23.13;;;11.10;99.90;;;;;;6243301;23;20000;-74
2023/04/29 03:49:04;;;;;;;35.20;25.83;;;11.10;99.90;;;;;;6243110;23;20000;-74
2023/04/29 03:51:30;;;;;;;35.67;23.83;;;11.10;99.90;;;;;;6242437;23;20031;-74
2023/04/29 03:53:56;;;;;;;31.17;23.83;;;11.10;99.90;;;;;;6243119;23;20000;-75
2023/04/29 03:56:24;;;;;;;36.80;24.58;;;11.10;99.90;;;;;;6240487;23;20426;-74
2023/04/29 03:58:50;;;;;;;29.92;21.90;;;11.10;99.90;;;;;;6243335;22;20000;-75
2023/04/29 04:01:16;;;;;;;31.10;23.02;;;11.10;99.90;;;;;;6242604;22;20000;-75
2023/04/29 04:03:42;;;;;;;35.38;24.02;;;11.10;99.90;;;;;;6243187;23;20474;-74
2023/04/29 04:06:08;;;;;;;30.08;22.45;;;11.10;99.90;;;;;;6242854;22;20440;-75
2023/04/29 04:08:33;;;;;;;33.65;22.98;;;11.10;99.90;;;;;;6242694;23;20000;-74
2023/04/29 04:11:02;;;;;;;31.40;22.60;;;11.00;99.90;;;;;;6242588;23;20437;-74
2023/04/29 04:13:28;;;;;;;30.77;23.23;;;11.00;99.90;;;;;;6242435;22;20123;-74
2023/04/29 04:15:53;;;;;;;28.52;21.13;;;11.00;99.90;;;;;;6243063;22;20445;-74
2023/04/29 04:18:19;;;;;;;31.65;21.75;;;11.00;99.90;;;;;;6242350;23;19996;-74
2023/04/29 04:20:45;;;;;;;31.75;21.27;;;11.00;99.90;;;;;;6242903;22;20426;-74
2023/04/29 04:23:10;;;;;;;28.30;20.92;;;11.00;99.90;;;;;;6242496;23;20075;-74
2023/04/29 04:25:36;;;;;;;28.50;21.58;;;11.00;99.90;;;;;;6242478;23;19996;-74
2023/04/29 04:28:01;;;;;;;26.48;20.55;;;10.90;99.90;;;;;;6243049;23;20016;-75
2023/04/29 04:30:27;;;;;;;29.90;21.95;;;10.90;99.90;;;;;;6242553;23;20068;-74
2023/04/29 04:32:52;;;;;;;26.63;20.13;;;10.90;99.90;;;;;;6242510;23;20015;-74
2023/04/29 04:35:18;;;;;;;30.33;22.73;;;10.90;99.90;;;;;;6241724;23;20001;-74
2023/04/29 04:37:44;;;;;;;28.10;21.45;;;10.90;99.90;;;;;;6242545;23;20032;-74
2023/04/29 04:40:10;;;;;;;26.65;21.48;;;10.90;99.90;;;;;;6240998;22;20378;-75
2023/04/29 04:42:36;;;;;;;30.92;21.73;;;10.90;99.90;;;;;;6242437;22;20027;-74
2023/04/29 04:45:02;;;;;;;30.27;21.27;;;10.90;99.90;;;;;;6242570;23;20007;-74
2023/04/29 04:47:28;;;;;;;27.63;22.02;;;10.90;99.90;;;;;;6242162;22;20011;-74
2023/04/29 04:49:53;;;;;;;27.95;21.60;;;10.90;99.90;;;;;;6242728;23;20004;-74
2023/04/29 04:52:20;;;;;;;27.17;24.20;;;10.90;99.90;;;;;;6240130;23;20446;-74
2023/04/29 04:54:46;;;;;;;28.45;20.83;;;10.90;99.90;;;;;;6242124;22;20060;-74
2023/04/29 04:57:12;;;;;;;25.10;20.00;;;10.90;99.90;;;;;;6242281;22;20008;-74
2023/04/29 04:59:38;;;;;;;29.98;21.92;;;10.90;99.90;;;;;;6242633;23;20039;-75
2023/04/29 05:02:03;;;;;;;26.83;20.63;;;11.00;99.90;;;;;;6242871;22;20398;-74
2023/04/29 05:04:29;;;;;;;25.30;19.25;;;10.90;99.90;;;;;;6241991;22;20004;-74
2023/04/29 05:06:55;;;;;;;26.25;21.40;;;11.00;99.90;;;;;;6242740;23;20004;-74
2023/04/29 05:09:20;;;;;;;23.65;19.45;;;10.90;99.90;;;;;;6241345;23;20004;-75
2023/04/29 05:11:46;;;;;;;29.65;21.83;;;11.00;99.90;;;;;;6242441;23;20004;-74
2023/04/29 05:14:11;;;;;;;28.55;21.58;;;10.90;99.90;;;;;;6242254;23;20414;-74
2023/04/29 05:16:37;;;;;;;27.38;22.50;;;10.90;99.90;;;;;;6242836;23;19996;-75
2023/04/29 05:19:02;;;;;;;25.38;19.40;;;10.90;99.90;;;;;;6242700;23;19996;-74
2023/04/29 05:21:28;;;;;;;28.10;21.02;;;11.00;99.90;;;;;;6241936;23;20330;-74
2023/04/29 05:23:53;;;;;;;26.52;20.45;;;11.00;99.90;;;;;;6242636;23;20004;-75
2023/04/29 05:26:20;;;;;;;26.38;20.75;;;11.10;99.90;;;;;;6242310;23;20075;-75
2023/04/29 05:28:45;;;;;;;25.67;20.67;;;11.10;99.90;;;;;;6242728;22;20079;-74
2023/04/29 05:31:11;;;;;;;26.15;20.38;;;11.20;99.90;;;;;;6241980;23;20031;-75
2023/04/29 05:33:36;;;;;;;25.27;18.20;;;11.20;99.90;;;;;;6242254;23;20016;-75
2023/04/29 05:36:02;;;;;;;33.17;21.13;;;11.20;99.90;;;;;;6242327;22;20004;-75
2023/04/29 05:38:27;;;;;;;22.63;19.67;;;11.20;99.90;;;;;;6241500;23;20075;-75
2023/04/29 05:40:55;;;;;;;22.52;19.55;;;11.30;99.90;;;;;;6242417;23;20075;-75
2023/04/29 05:43:20;;;;;;;26.17;19.55;;;11.30;99.90;;;;;;6242017;22;19996;-75
2023/04/29 05:45:46;;;;;;;24.15;19.55;;;11.30;99.90;;;;;;6242364;23;20007;-75
2023/04/29 05:48:12;;;;;;;27.00;20.52;;;11.30;99.90;;;;;;6241906;23;20067;-75
2023/04/29 05:50:37;;;;;;;24.58;20.33;;;11.40;99.90;;;;;;6242430;23;20330;-75
2023/04/29 05:53:03;;;;;;;21.23;18.60;;;11.50;99.90;;;;;;6241658;23;20031;-76
2023/04/29 05:55:29;;;;;;;25.20;20.02;;;11.50;99.90;;;;;;6241927;22;20000;-75
2023/04/29 05:57:55;;;;;;;22.35;19.23;;;11.50;99.90;;;;;;6242451;22;20003;-75
2023/04/29 06:00:21;;;;;;;24.27;20.48;;;11.50;99.90;;;;;;6241859;22;20000;-75
2023/04/29 06:02:46;;;;;;;25.98;19.65;;;11.50;99.90;;;;;;6242522;23;20004;-75
2023/04/29 06:05:13;;;;;;;26.67;19.50;;;11.50;99.90;;;;;;6242937;23;20035;-75
2023/04/29 06:07:40;;;;;;;23.98;20.23;;;11.60;99.90;;;;;;6243940;22;20746;-75
2023/04/29 06:10:06;;;;;;;22.98;20.27;;;11.60;99.90;;;;;;6244158;22;20026;-75
2023/04/29 06:12:32;;;;;;;24.17;18.65;;;11.60;99.90;;;;;;6243729;22;20008;-75
2023/04/29 06:14:57;;;;;;;22.17;19.60;;;11.70;99.90;;;;;;6244213;23;20008;-75
2023/04/29 06:17:23;;;;;;;23.92;20.92;;;11.70;99.90;;;;;;6243587;23;20000;-75
2023/04/29 06:19:48;;;;;;;22.38;19.80;;;11.80;99.90;;;;;;6243989;23;20007;-75
2023/04/29 06:22:14;;;;;;;21.88;19.65;;;11.80;99.90;;;;;;6243096;23;20256;-75
2023/04/29 06:24:39;;;;;;;24.25;20.95;;;11.80;99.90;;;;;;6244077;23;20011;-75
2023/04/29 06:27:05;;;;;;;24.42;19.73;;;11.80;99.90;;;;;;6243919;23;20441;-75
2023/04/29 06:29:30;;;;;;;25.83;19.55;;;11.80;99.90;;;;;;6243877;23;20014;-75
2023/04/29 06:31:56;;;;;;;23.17;20.73;;;11.80;99.90;;;;;;6244068;23;20444;-75
2023/04/29 06:34:21;;;;;;;25.52;20.08;;;11.80;99.90;;;;;;6243241;23;20095;-75
2023/04/29 06:36:47;;;;;;;27.40;20.02;;;11.90;99.90;;;;;;6243716;23;20083;-75
2023/04/29 06:39:12;;;;;;;27.25;19.65;;;11.90;99.90;;;;;;6243238;23;20003;-76
2023/04/29 06:41:39;;;;;;;20.08;17.98;;;11.90;99.90;;;;;;6244134;23;20006;-75
2023/04/29 06:44:05;;;;;;;22.33;18.88;;;12.00;99.90;;;;;;6243926;22;20023;-76
2023/04/29 06:46:30;;;;;;;29.10;19.70;;;12.00;99.90;;;;;;6241902;23;20004;-75
2023/04/29 06:48:56;;;;;;;22.85;19.27;;;12.00;99.90;;;;;;6243737;23;20043;-75
2023/04/29 06:51:21;;;;;;;24.88;19.05;;;12.10;99.90;;;;;;6242666;23;20049;-75
2023/04/29 06:53:47;;;;;;;23.05;17.27;;;12.10;99.90;;;;;;6243732;23;20012;-75
2023/04/29 06:56:12;;;;;;;24.98;19.20;;;12.10;99.90;;;;;;6243128;23;20066;-75
2023/04/29 06:58:38;;;;;;;21.17;17.83;;;12.10;99.90;;;;;;6243863;23;20369;-75
2023/04/29 07:01:05;;;;;;;23.60;19.58;;;12.10;99.90;;;;;;6243675;22;20414;-75
2023/04/29 07:03:31;;;;;;;25.73;19.30;;;12.20;99.90;;;;;;6241455;23;20012;-75
2023/04/29 07:05:57;;;;;;;22.35;18.02;;;12.30;99.90;;;;;;6243206;23;20448;-75
2023/04/29 07:08:22;;;;;;;27.25;18.10;;;12.30;99.90;;;;;;6242864;23;20495;-75
2023/04/29 07:10:55;;;;;;;20.27;17.95;;;12.40;99.90;;;;;;6243659;23;20011;-76
2023/04/29 07:13:21;;;;;;;20.25;16.38;;;12.40;99.90;;;;;;6243420;22;20444;-85
2023/04/29 07:15:47;;;;;;;22.75;16.80;;;12.50;99.90;;;;;;6243508;23;20071;-85
2023/04/29 07:18:12;;;;;;;21.40;17.60;;;12.50;99.90;;;;;;6243346;22;20082;-85
2023/04/29 07:20:38;;;;;;;22.27;17.20;;;12.60;99.90;;;;;;6243721;23;20054;-85
2023/04/29 07:23:04;;;;;;;19.65;17.25;;;12.60;99.90;;;;;;6243975;23;20307;-85
2023/04/29 07:25:29;;;;;;;23.45;17.48;;;12.60;99.90;;;;;;6243696;22;20005;-85
2023/04/29 07:27:55;;;;;;;28.00;18.40;;;12.70;99.90;;;;;;6245360;23;20001;-86
2023/04/29 07:30:22;;;;;;;20.42;15.65;;;12.80;99.90;;;;;;6247771;22;20083;-86
2023/04/29 07:32:47;;;;;;;24.40;17.63;;;12.80;99.90;;;;;;6259595;22;20047;-86
2023/04/29 07:35:13;;;;;;;21.88;16.38;;;12.90;99.90;;;;;;6254373;22;20000;-86
2023/04/29 07:37:40;;;;;;;20.60;16.67;;;12.90;99.90;;;;;;6245136;23;20007;-86
2023/04/29 07:40:06;;;;;;;22.63;16.00;;;13.00;99.90;;;;;;6246742;22;20000;-86
2023/04/29 07:42:31;;;;;;;23.30;18.52;;;13.00;99.90;;;;;;6251658;22;20007;-86
2023/04/29 07:44:57;;;;;;;22.63;16.08;;;13.10;99.90;;;;;;6267520;23;20004;-85
2023/04/29 07:47:23;;;;;;;20.83;18.27;;;13.20;99.90;;;;;;6253112;23;20067;-85
2023/04/29 07:49:48;;;;;;;23.27;15.90;;;13.20;99.90;;;;;;6245112;23;20000;-86
2023/04/29 07:52:14;;;;;;;22.52;15.60;;;13.30;99.90;;;;;;6242675;23;20019;-86
2023/04/29 07:54:39;;;;;;;18.42;14.55;;;13.30;99.90;;;;;;6244513;23;20004;-86
2023/04/29 07:57:04;;;;;;;17.52;14.65;;;13.40;99.90;;;;;;6243178;23;19996;-87
2023/04/29 07:59:31;;;;;;;17.63;14.95;;;13.40;99.90;;;;;;6244322;23;20414;-85
2023/04/29 08:01:56;;;;;;;18.58;16.30;;;13.40;99.90;;;;;;6242736;23;20039;-86
2023/04/29 08:04:22;;;;;;;17.15;14.90;;;13.50;99.90;;;;;;6241751;23;20062;-86
2023/04/29 08:06:48;;;;;;;20.13;14.82;;;13.60;99.90;;;;;;6244043;23;20378;-85
2023/04/29 08:09:14;;;;;;;19.08;13.75;;;13.70;99.90;;;;;;6243423;22;19996;-86
2023/04/29 08:11:40;;;;;;;16.30;13.63;;;13.80;99.90;;;;;;6243902;22;20003;-87
2023/04/29 08:14:06;;;;;;;17.05;13.10;;;13.90;99.90;;;;;;6243880;22;20003;-86
2023/04/29 08:16:32;;;;;;;17.02;14.52;;;14.00;99.90;;;;;;6243435;22;20000;-85
2023/04/29 08:18:57;;;;;;;15.93;13.63;;;14.00;99.90;;;;;;6243521;23;20011;-86
2023/04/29 08:21:23;;;;;;;13.55;11.90;;;14.10;99.90;;;;;;6242991;23;20050;-85
2023/04/29 08:23:48;;;;;;;14.57;12.93;;;14.10;99.90;;;;;;6243422;23;20005;-85
2023/04/29 08:26:14;;;;;;;17.63;12.85;;;14.20;99.90;;;;;;6241174;23;20000;-85
2023/04/29 08:28:40;;;;;;;17.70;13.48;;;14.30;99.90;;;;;;6243187;23;20015;-85
2023/04/29 08:31:06;;;;;;;17.35;13.68;;;14.40;99.90;;;;;;6243264;23;20004;-84
2023/04/29 08:33:33;;;;;;;13.90;11.80;;;14.50;99.90;;;;;;6242228;22;20094;-85
2023/04/29 08:36:02;;;;;;;19.00;14.75;;;14.60;99.90;;;;;;6242468;22;20011;-84
2023/04/29 08:38:27;;;;;;;20.95;11.77;;;14.70;99.90;;;;;;6242960;22;20008;-82
2023/04/29 08:40:53;;;;;;;20.17;13.57;;;14.80;99.90;;;;;;6241522;23;20299;-85
2023/04/29 08:43:20;;;;;;;18.02;13.05;;;14.80;99.90;;;;;;6240744;23;20434;-84
2023/04/29 08:45:50;;;;;;;18.80;12.80;;;14.80;99.90;;;;;;6243432;22;20430;-85
2023/04/29 08:48:16;;;;;;;18.25;12.18;;;14.90;99.90;;;;;;6241986;22;20031;-84
2023/04/29 08:50:42;;;;;;;16.38;12.05;;;15.00;99.90;;;;;;6242843;22;20067;-83
2023/04/29 08:53:09;;;;;;;13.00;10.32;;;15.00;99.90;;;;;;6242725;23;20016;-84
2023/04/29 08:55:46;;;;;;;14.50;10.45;;;14.90;99.90;;;;;;6242749;22;20004;-83
2023/04/29 08:58:13;;;;;;;12.13;10.85;;;15.00;99.90;;;;;;6242258;22;20003;-84
2023/04/29 09:00:40;;;;;;;14.50;11.02;;;15.00;99.90;;;;;;6242766;22;20003;-83
2023/04/29 09:03:28;;;;;;;15.13;10.00;;;15.10;99.90;;;;;;6242376;22;20083;-83
2023/04/29 09:05:58;;;;;;;11.80;10.30;;;15.20;99.90;;;;;;6242758;22;20004;-84
2023/04/29 09:08:24;;;;;;;11.13;8.88;;;15.20;99.90;;;;;;6242066;22;20023;-84
2023/04/29 09:10:53;;;;;;;9.77;7.95;;;15.30;99.90;;;;;;6242949;23;20491;-85
2023/04/29 09:13:27;;;;;;;10.02;8.48;;;15.20;99.90;;;;;;6241456;23;20015;-84
2023/04/29 09:15:53;;;;;;;10.13;8.15;;;15.20;99.90;;;;;;6240699;23;20011;-85
2023/04/29 09:18:40;;;;;;;12.82;8.50;;;15.10;99.90;;;;;;6242282;22;20352;-84
2023/04/29 09:21:13;;;;;;;9.25;8.35;;;14.90;99.90;;;;;;6242250;23;20050;-86
2023/04/29 09:23:38;;;;;;;9.90;8.30;;;14.90;99.90;;;;;;6242724;22;20090;-85
2023/04/29 09:26:04;;;;;;;14.07;10.32;;;14.90;99.90;;;;;;6242066;23;20374;-83
2023/04/29 09:28:29;;;;;;;13.68;9.88;;;15.00;99.90;;;;;;6243090;23;20430;-86
2023/04/29 09:30:55;;;;;;;12.68;10.00;;;15.00;99.90;;;;;;6242263;23;20038;-85
2023/04/29 09:33:20;;;;;;;14.45;9.10;;;15.10;99.90;;;;;;6240092;23;20016;-85
2023/04/29 09:35:47;;;;;;;11.77;8.85;;;15.30;99.90;;;;;;6242750;23;20000;-85
2023/04/29 09:38:14;;;;;;;10.63;8.27;;;15.30;99.90;;;;;;6241957;23;20030;-83
2023/04/29 09:40:42;;;;;;;11.80;8.98;;;15.40;99.90;;;;;;6246845;22;20001;-85
2023/04/29 09:43:14;;;;;;;7.90;7.03;;;15.50;99.90;;;;;;6244067;22;20095;-85
2023/04/29 09:45:46;;;;;;;11.57;8.30;;;15.50;99.90;;;;;;6245456;22;20357;-85
2023/04/29 09:48:12;;;;;;;11.32;8.60;;;15.60;99.90;;;;;;6249785;22;20007;-85
2023/04/29 09:50:39;;;;;;;12.50;6.88;;;15.60;99.90;;;;;;6252580;23;20008;-85
2023/04/29 09:53:07;;;;;;;9.55;7.53;;;15.70;99.90;;;;;;6246401;23;20008;-85
2023/04/29 09:55:56;;;;;;;9.60;5.43;;;15.80;99.50;;;;;;6245309;22;20079;-84
2023/04/29 09:58:35;;;;;;;9.57;7.15;;;16.00;99.60;;;;;;6246510;23;20605;-85
2023/04/29 10:01:03;;;;;;;8.00;6.78;;;16.20;98.90;;;;;;6259933;22;20003;-85
2023/04/29 10:03:33;;;;;;;9.73;7.35;;;16.30;98.20;;;;;;6259014;22;20011;-84
2023/04/29 10:06:00;;;;;;;12.32;7.57;;;16.30;97.90;;;;;;6245878;22;20010;-84
2023/04/29 10:08:27;;;;;;;8.50;6.68;;;16.40;97.90;;;;;;6244506;22;20006;-85
2023/04/29 10:10:56;;;;;;;7.85;6.50;;;16.50;97.80;;;;;;6245048;22;20001;-84
2023/04/29 10:13:26;;;;;;;8.55;6.53;;;16.50;97.70;;;;;;6242046;23;20018;-84
2023/04/29 10:16:09;;;;;;;9.90;6.40;;;16.60;97.60;;;;;;6245101;22;20000;-85
2023/04/29 10:18:36;;;;;;;6.97;5.85;;;16.60;97.00;;;;;;6244539;22;20007;-85
2023/04/29 10:21:05;;;;;;;8.50;6.30;;;16.60;96.90;;;;;;6244730;22;20421;-85
2023/04/29 10:23:32;;;;;;;6.00;5.22;;;16.50;96.70;;;;;;6244141;22;20010;-85
2023/04/29 10:25:59;;;;;;;11.02;6.75;;;16.50;96.60;;;;;;6244448;22;20127;-85
2023/04/29 10:28:26;;;;;;;9.07;6.05;;;16.50;96.70;;;;;;6243399;22;20016;-85
2023/04/29 10:30:53;;;;;;;7.07;5.05;;;16.50;96.30;;;;;;6242988;23;20004;-85
2023/04/29 10:33:22;;;;;;;6.70;4.93;;;16.60;96.10;;;;;;6241824;23;20024;-85
2023/04/29 10:35:48;;;;;;;6.45;4.80;;;16.60;96.10;;;;;;6242793;23;20008;-85
2023/04/29 10:38:27;;;;;;;6.35;5.75;;;16.60;95.70;;;;;;6243894;22;20024;-85
2023/04/29 10:40:54;;;;;;;6.90;5.15;;;16.60;95.30;;;;;;6242846;23;20425;-85
2023/04/29 10:43:23;;;;;;;8.93;5.70;;;16.50;95.30;;;;;;6242805;22;20011;-84
2023/04/29 10:45:49;;;;;;;5.97;5.07;;;16.40;94.80;;;;;;6243947;22;20000;-85
2023/04/29 10:48:15;;;;;;;5.82;4.43;;;16.40;95.30;;;;;;6243438;23;20006;-84
2023/04/29 10:51:00;;;;;;;7.97;5.25;;;16.50;95.50;;;;;;6243755;22;20026;-84
2023/04/29 10:53:26;;;;;;;7.30;5.15;;;16.50;95.20;;;;;;6243769;22;20007;-84
2023/04/29 10:56:08;;;;;;;5.55;4.13;;;16.50;95.10;;;;;;6243636;23;20035;-86
2023/04/29 10:58:43;;;;;;;4.75;4.32;;;16.60;94.80;;;;;;6243854;22;20000;-84
2023/04/29 11:01:16;;;;;;;6.68;4.50;;;16.60;94.70;;;;;;6243896;22;19996;-84
2023/04/29 11:03:58;;;;;;;6.60;4.68;;;16.60;94.50;;;;;;6244204;22;20504;-85
2023/04/29 11:06:33;;;;;;;4.72;3.55;;;16.70;94.30;;;;;;6243996;22;20015;-85
2023/04/29 11:09:14;;;;;;;5.00;4.30;;;16.80;94.00;;;;;;6244655;22;20050;-84
2023/04/29 11:11:48;;;;;;;5.60;4.78;;;16.90;93.90;;;;;;6244038;22;20000;-84
2023/04/29 11:14:19;;;;;;;5.78;4.40;;;17.00;93.80;;;;;;6242292;23;20012;-85
2023/04/29 11:16:55;;;;;;;5.32;4.10;;;17.10;93.70;;;;;;6242506;23;20426;-84
2023/04/29 11:19:23;;;;;;;5.68;4.88;;;17.30;93.60;;;;;;6242849;22;20023;-86
2023/04/29 11:22:09;;;;;;;4.95;4.45;;;17.50;93.30;;;;;;6241853;23;20008;-85
2023/04/29 11:24:35;;;;;;;5.00;4.15;;;17.70;92.90;;;;;;6243502;22;20002;-86
2023/04/29 11:27:05;;;;;;;4.07;3.60;;;17.80;92.70;;;;;;6243220;22;19996;-87
2023/04/29 11:29:33;;;;;;;4.70;4.13;;;17.90;92.30;;;;;;6243363;22;20011;-85
2023/04/29 11:32:02;;;;;;;7.60;3.95;;;17.90;91.30;;;;;;6245771;23;20070;-84
2023/04/29 11:34:27;;;;;;;5.13;4.18;;;18.00;91.30;;;;;;6244558;23;20016;-85
2023/04/29 11:36:53;;;;;;;7.10;3.95;;;18.00;91.10;;;;;;6243600;23;20007;-86
2023/04/29 11:39:18;;;;;;;4.90;3.88;;;18.00;90.90;;;;;;6242647;23;20004;-84
2023/04/29 11:41:44;;;;;;;4.93;3.63;;;17.90;90.50;;;;;;6244531;23;20023;-85
2023/04/29 11:44:10;;;;;;;5.60;3.58;;;17.90;90.30;;;;;;6245993;23;20050;-85
2023/04/29 11:46:36;;;;;;;5.22;4.10;;;17.90;90.20;;;;;;6242374;23;20004;-85
2023/04/29 11:49:02;;;;;;;5.15;4.13;;;18.00;90.00;;;;;;6241726;23;20031;-85
2023/04/29 11:51:28;;;;;;;11.02;4.55;;;18.10;89.40;;;;;;6243141;22;20063;-85
2023/04/29 11:53:54;;;;;;;7.07;4.93;;;18.00;89.20;;;;;;6243053;22;20008;-86
2023/04/29 11:56:24;;;;;;;17.60;5.45;;;18.00;89.30;;;;;;6242572;22;20652;-85
2023/04/29 11:58:54;;;;;;;4.88;3.53;;;18.00;89.60;;;;;;6249471;22;20054;-85
2023/04/29 12:01:21;;;;;;;4.82;4.32;;;18.00;88.70;;;;;;6254385;23;20000;-84
2023/04/29 12:03:48;;;;;;;5.80;3.88;;;18.00;89.10;;;;;;6258766;22;20000;-85
2023/04/29 12:06:14;;;;;;;4.40;3.53;;;18.10;89.00;;;;;;6253084;23;20011;-86
2023/04/29 12:08:40;;;;;;;5.72;4.00;;;18.30;88.60;;;;;;6244665;22;20289;-86
2023/04/29 12:11:06;;;;;;;5.30;4.38;;;18.30;89.00;;;;;;6244679;23;20418;-87
2023/04/29 12:13:35;;;;;;;4.78;3.17;;;18.40;87.70;;;;;;6245562;23;20011;-84
2023/04/29 12:16:01;;;;;;;6.53;3.90;;;18.40;86.80;;;;;;6267825;23;20031;-84
2023/04/29 12:18:28;;;;;;;3.50;3.20;;;18.30;86.10;;;;;;6258418;23;20089;-85
2023/04/29 12:20:57;;;;;;;7.63;4.10;;;18.40;86.60;;;;;;6243926;22;20079;-83
2023/04/29 12:23:25;;;;;;;4.43;3.17;;;18.20;86.00;;;;;;6243316;22;20000;-84
2023/04/29 12:25:56;;;;;;;6.72;3.88;;;18.10;86.40;;;;;;6242800;22;20339;-85
2023/04/29 12:28:22;;;;;;;5.70;4.35;;;18.20;86.60;;;;;;6241359;23;20365;-85
2023/04/29 12:30:50;;;;;;;4.13;3.65;;;18.20;85.40;;;;;;6243426;22;20027;-79